Time;durP1;ratioP1;P1;durP2;ratioP2;P2;SDS_P1;SDS_P2;PMS_P1;PMS_P2;Temp;Humidity;BMP_temperature;BMP_pressure;BME280_temperature;BME280_humidity;BME280_pressure;Samples;Min_cycle;Max_cycle;Signal;HPM_P1;HPM_P2
2022/06/21 00:02:06;;;;;;;1.13;0.13;;;20.00;53.30;;;;;;5100229;28;20044;-66
2022/06/21 00:04:32;;;;;;;1.00;0.20;;;19.90;53.20;;;;;;5094845;28;20067;-66
2022/06/21 00:07:03;;;;;;;0.40;0.10;;;19.90;53.20;;;;;;5093849;28;20511;-66
2022/06/21 00:09:28;;;;;;;0.98;0.10;;;19.90;53.30;;;;;;5093365;28;20051;-66
2022/06/21 00:11:54;;;;;;;1.33;0.20;;;19.90;53.30;;;;;;5093556;28;20040;-66
2022/06/21 00:14:20;;;;;;;0.70;0.10;;;19.90;53.20;;;;;;5093305;28;20044;-66
2022/06/21 00:16:46;;;;;;;0.47;0.20;;;19.90;53.30;;;;;;5094671;28;20036;-66
2022/06/21 00:19:19;;;;;;;0.45;0.10;;;19.90;53.30;;;;;;5093590;28;20039;-66
2022/06/21 00:21:46;;;;;;;1.90;0.40;;;19.80;53.20;;;;;;5093290;28;20479;-66
2022/06/21 00:24:16;;;;;;;0.55;0.20;;;19.80;53.20;;;;;;5093211;28;20486;-66
2022/06/21 00:26:43;;;;;;;1.65;0.20;;;19.80;53.20;;;;;;5094418;28;20384;-66
2022/06/21 00:29:09;;;;;;;1.48;0.20;;;19.80;53.20;;;;;;5094323;28;20036;-66
2022/06/21 00:31:39;;;;;;;1.15;0.20;;;19.80;53.20;;;;;;5093137;28;20506;-66
2022/06/21 00:34:12;;;;;;;1.27;0.10;;;19.80;53.30;;;;;;5093124;28;20044;-66
2022/06/21 00:36:38;;;;;;;0.50;0.10;;;19.80;53.30;;;;;;5094268;28;20044;-66
2022/06/21 00:39:05;;;;;;;0.35;0.10;;;19.70;53.20;;;;;;5093241;28;20093;-66
2022/06/21 00:41:52;;;;;;;0.38;0.10;;;19.70;53.30;;;;;;5094191;28;20077;-66
2022/06/21 00:44:23;;;;;;;1.25;0.30;;;19.70;53.40;;;;;;5106210;28;20075;-66
2022/06/21 00:46:54;;;;;;;0.52;0.13;;;19.70;53.40;;;;;;5113457;28;20096;-66
2022/06/21 00:49:26;;;;;;;1.13;0.57;;;19.70;53.40;;;;;;5114486;28;20032;-66
2022/06/21 00:52:01;;;;;;;0.50;0.10;;;19.60;53.30;;;;;;5112843;28;20128;-66
2022/06/21 00:57:16;;;;;;;1.23;0.20;;;19.60;53.50;;;;;;5130400;27;20433;-66
2022/06/21 00:59:44;;;;;;;1.13;0.10;;;19.60;53.50;;;;;;5129017;28;20039;-66
2022/06/21 01:02:32;;;;;;;0.85;0.35;;;19.60;53.50;;;;;;5129241;28;20051;-66
2022/06/21 01:05:02;;;;;;;1.83;0.30;;;19.60;53.60;;;;;;5130187;27;20035;-66
2022/06/21 01:07:28;;;;;;;1.30;0.25;;;19.60;53.60;;;;;;5129160;28;20066;-66
2022/06/21 01:10:12;;;;;;;0.80;0.20;;;19.60;53.60;;;;;;5130067;28;20039;-66
2022/06/21 01:12:47;;;;;;;0.73;0.17;;;19.50;53.60;;;;;;5128748;28;20043;-66
2022/06/21 01:15:20;;;;;;;1.48;0.10;;;19.50;53.60;;;;;;5128583;28;20092;-66
2022/06/21 01:17:48;;;;;;;1.73;0.20;;;19.50;53.60;;;;;;5128736;28;20040;-66
2022/06/21 01:20:20;;;;;;;0.50;0.10;;;19.50;53.60;;;;;;5129891;27;20448;-66
2022/06/21 01:28:26;;;;;;;0.30;0.10;;;19.50;53.70;;;;;;5130437;27;20403;-66
2022/06/21 01:30:56;;;;;;;0.93;0.10;;;19.50;53.70;;;;;;5128874;28;20055;-66
2022/06/21 01:33:30;;;;;;;1.65;0.20;;;19.50;53.80;;;;;;5129294;28;20043;-66
2022/06/21 01:35:59;;;;;;;1.13;0.20;;;19.50;53.80;;;;;;5130193;27;20032;-66
2022/06/21 01:38:31;;;;;;;1.60;0.22;;;19.50;53.80;;;;;;5128886;28;20074;-66
2022/06/21 01:41:03;;;;;;;0.82;0.13;;;19.50;53.80;;;;;;5129104;28;20047;-66
2022/06/21 01:43:31;;;;;;;0.47;0.20;;;19.50;53.80;;;;;;5130109;27;20046;-66
2022/06/21 01:46:03;;;;;;;0.85;0.17;;;19.50;53.80;;;;;;5129548;27;20441;-66
2022/06/21 01:48:33;;;;;;;0.80;0.20;;;19.40;53.80;;;;;;5130071;27;20407;-66
2022/06/21 01:51:04;;;;;;;0.98;0.17;;;19.50;53.80;;;;;;5128452;27;20069;-66
2022/06/21 01:53:31;;;;;;;0.70;0.20;;;19.40;53.80;;;;;;5128597;28;20126;-66
2022/06/21 01:56:02;;;;;;;0.20;0.10;;;19.40;53.80;;;;;;5129877;27;20055;-66
2022/06/21 01:58:32;;;;;;;0.90;0.20;;;19.40;53.80;;;;;;5128746;28;20047;-66
2022/06/21 02:01:18;;;;;;;1.30;0.20;;;19.40;53.80;;;;;;5128836;27;20039;-66
2022/06/21 02:03:50;;;;;;;0.70;0.10;;;19.40;53.80;;;;;;5129720;27;20043;-66
2022/06/21 02:06:17;;;;;;;0.63;0.10;;;19.40;53.80;;;;;;5129627;27;20093;-66
2022/06/21 02:09:03;;;;;;;0.50;0.10;;;19.40;53.80;;;;;;5110169;28;20066;-65
2022/06/21 02:11:36;;;;;;;0.45;0.10;;;19.40;53.80;;;;;;5129558;28;20129;-66
2022/06/21 02:14:34;;;;;;;0.47;0.10;;;19.30;53.70;;;;;;5128285;28;20035;-65
2022/06/21 02:16:52;;;;;;;1.42;0.10;;;19.30;53.70;;;;;;5127874;28;20066;-66
2022/06/21 02:19:28;;;;;;;0.45;0.10;;;19.30;53.70;;;;;;5128280;28;20066;-66
2022/06/21 02:21:54;;;;;;;0.30;0.10;;;19.30;53.70;;;;;;5128312;28;20035;-66
2022/06/21 02:24:23;;;;;;;1.08;0.10;;;19.30;53.70;;;;;;5129130;28;20040;-66
2022/06/21 02:26:51;;;;;;;1.70;0.20;;;19.30;53.70;;;;;;5129146;28;20411;-66
2022/06/21 02:29:17;;;;;;;0.63;0.10;;;19.30;53.70;;;;;;5127725;28;20088;-66
2022/06/21 02:31:44;;;;;;;0.73;0.10;;;19.20;53.70;;;;;;5129198;28;20070;-66
2022/06/21 02:34:19;;;;;;;0.50;0.20;;;19.30;53.70;;;;;;5128019;27;20105;-66
2022/06/21 02:36:51;;;;;;;0.88;0.10;;;19.20;53.80;;;;;;5129046;28;20372;-66
2022/06/21 02:39:21;;;;;;;0.68;0.20;;;19.20;53.70;;;;;;5117776;28;20043;-66
2022/06/21 02:41:51;;;;;;;1.00;0.13;;;19.20;53.80;;;;;;5114113;28;20050;-66
2022/06/21 02:44:36;;;;;;;;;;;19.20;53.80;;;;;;5114534;28;20064;-65
2022/06/21 02:47:09;;;;;;;0.63;0.10;;;19.10;53.90;;;;;;5115360;28;19920;-66
2022/06/21 02:49:41;;;;;;;0.60;0.20;;;19.10;53.80;;;;;;5113626;28;20044;-67
2022/06/21 02:52:21;;;;;;;1.85;0.15;;;19.20;53.80;;;;;;5114040;28;20048;-66
2022/06/21 02:57:46;;;;;;;1.77;0.20;;;19.20;53.80;;;;;;5109772;27;20296;-65
2022/06/21 03:00:17;;;;;;;0.88;0.47;;;19.10;53.80;;;;;;5108293;28;20044;-65
2022/06/21 03:02:44;;;;;;;1.33;0.15;;;19.10;53.80;;;;;;5108393;28;20039;-66
2022/06/21 03:05:22;;;;;;;0.95;0.20;;;19.10;53.90;;;;;;5108382;28;20044;-65
2022/06/21 03:07:53;;;;;;;1.00;0.10;;;19.10;53.90;;;;;;5108590;28;20101;-66
2022/06/21 03:10:24;;;;;;;0.38;0.10;;;19.00;53.80;;;;;;5108168;28;20127;-66
2022/06/21 03:12:52;;;;;;;;;;;19.00;53.80;;;;;;5109896;28;20360;-66
2022/06/21 03:15:18;;;;;;;0.30;0.10;;;19.00;53.90;;;;;;5108098;28;19916;-66
2022/06/21 03:17:53;;;;;;;2.22;0.20;;;19.00;53.90;;;;;;5109429;28;20038;-65
2022/06/21 03:20:20;;;;;;;0.75;0.10;;;19.00;53.80;;;;;;5108005;28;20495;-66
2022/06/21 03:22:48;;;;;;;0.28;0.10;;;19.00;53.80;;;;;;5108018;28;20048;-66
2022/06/21 03:25:22;;;;;;;0.60;0.10;;;19.00;53.80;;;;;;5107883;28;20051;-66
2022/06/21 03:27:53;;;;;;;1.20;0.20;;;19.00;53.80;;;;;;5108241;28;20120;-65
2022/06/21 03:30:21;;;;;;;0.60;0.10;;;19.00;53.80;;;;;;5107756;28;20040;-66
2022/06/21 03:32:49;;;;;;;1.77;0.10;;;19.00;53.80;;;;;;5108140;28;20421;-66
2022/06/21 03:35:15;;;;;;;0.30;0.10;;;19.00;53.80;;;;;;5109051;28;20090;-66
2022/06/21 03:37:43;;;;;;;0.85;0.10;;;18.90;53.70;;;;;;5109115;28;20036;-66
2022/06/21 03:43:07;;;;;;;0.60;0.10;;;19.00;54.50;;;;;;5108818;28;20036;-65
2022/06/21 03:45:37;;;;;;;0.20;0.10;;;19.00;53.80;;;;;;5107793;28;20043;-66
2022/06/21 03:48:27;;;;;;;0.80;0.10;;;18.90;53.70;;;;;;5109364;28;20126;-66
2022/06/21 03:51:07;;;;;;;0.80;0.20;;;18.90;53.80;;;;;;5107336;28;20048;-65
2022/06/21 03:53:39;;;;;;;0.90;0.20;;;18.90;53.80;;;;;;5107466;28;20051;-66
2022/06/21 04:01:35;;;;;;;0.40;0.10;;;18.90;53.80;;;;;;5109728;27;20394;-66
2022/06/21 04:15:21;;;;;;;0.20;0.10;;;18.90;53.80;;;;;;5146312;27;20454;-66
2022/06/21 04:18:05;;;;;;;0.50;0.10;;;18.80;53.80;;;;;;5130145;28;20532;-66
2022/06/21 04:28:52;;;;;;;1.17;0.10;;;18.90;53.80;;;;;;5130352;27;20354;-65
2022/06/21 04:31:34;;;;;;;0.90;0.10;;;18.90;53.80;;;;;;5128904;28;20075;-66
2022/06/21 04:34:08;;;;;;;3.42;0.20;;;18.90;53.70;;;;;;5129016;28;20051;-65
2022/06/21 04:36:38;;;;;;;1.33;0.10;;;18.90;53.70;;;;;;5128874;28;20478;-66
2022/06/21 04:39:10;;;;;;;0.65;0.10;;;18.90;53.70;;;;;;5129160;28;20155;-66
2022/06/21 04:41:45;;;;;;;0.30;0.10;;;18.90;53.80;;;;;;5128763;28;20110;-65
2022/06/21 04:44:33;;;;;;;0.75;0.10;;;18.90;53.80;;;;;;5130246;27;20086;-66
2022/06/21 04:47:06;;;;;;;0.47;0.10;;;18.90;53.80;;;;;;5130367;27;20126;-65
2022/06/21 04:49:37;;;;;;;0.95;0.10;;;18.90;53.80;;;;;;5128920;28;20040;-66
2022/06/21 04:52:11;;;;;;;0.40;0.10;;;18.90;53.80;;;;;;5128907;28;20471;-65
2022/06/21 04:54:38;;;;;;;0.85;0.13;;;18.90;53.90;;;;;;5128827;27;20040;-65
2022/06/21 05:02:36;;;;;;;0.52;0.10;;;18.90;53.90;;;;;;5152524;27;1181089;-66
2022/06/21 05:05:09;;;;;;;1.00;0.17;;;18.90;54.00;;;;;;5136612;27;20472;-66
2022/06/21 05:07:46;;;;;;;0.75;0.10;;;18.90;53.90;;;;;;5153006;27;20473;-65
2022/06/21 05:10:19;;;;;;;1.15;0.20;;;18.90;54.00;;;;;;5171710;27;20061;-66
2022/06/21 05:12:47;;;;;;;0.52;0.20;;;18.90;54.00;;;;;;5152895;27;20039;-66
2022/06/21 05:15:20;;;;;;;0.82;0.10;;;18.90;54.00;;;;;;5153103;27;20700;-66
2022/06/21 05:17:50;;;;;;;0.75;0.20;;;18.90;54.00;;;;;;5152999;27;20500;-65
2022/06/21 05:20:20;;;;;;;1.33;0.20;;;18.90;54.00;;;;;;5152884;27;20122;-65
2022/06/21 05:22:53;;;;;;;0.75;0.20;;;18.90;54.00;;;;;;5152951;27;20046;-66
2022/06/21 05:25:26;;;;;;;0.63;0.20;;;18.90;54.10;;;;;;5152678;27;20485;-66
2022/06/21 05:27:59;;;;;;;1.80;0.20;;;18.90;54.10;;;;;;5152732;27;20506;-65
2022/06/21 05:33:28;;;;;;;0.55;0.10;;;18.90;54.10;;;;;;5089422;28;20386;-66
2022/06/21 05:35:54;;;;;;;0.38;0.10;;;18.90;54.10;;;;;;5088424;28;20113;-65
2022/06/21 05:38:24;;;;;;;1.10;0.17;;;18.90;54.10;;;;;;5086778;28;20040;-64
2022/06/21 05:41:29;;;;;;;1.88;0.30;;;18.90;54.20;;;;;;5087570;28;20499;-64
2022/06/21 05:44:18;;;;;;;1.40;0.10;;;18.90;54.40;;;;;;5084951;28;20046;-64
2022/06/21 05:46:47;;;;;;;0.38;0.13;;;18.90;54.20;;;;;;5084758;28;20052;-64
2022/06/21 05:49:21;;;;;;;2.38;0.20;;;18.90;54.30;;;;;;5085217;28;20045;-65
2022/06/21 05:51:48;;;;;;;2.88;0.28;;;19.00;54.70;;;;;;5086793;28;20071;-64
2022/06/21 05:54:18;;;;;;;2.63;0.30;;;19.00;54.70;;;;;;5084384;28;20047;-64
2022/06/21 05:56:45;;;;;;;2.57;0.40;;;19.00;55.00;;;;;;5084460;28;20087;-64
2022/06/21 05:59:16;;;;;;;1.50;0.25;;;19.00;55.20;;;;;;5085289;28;20318;-65
2022/06/21 06:02:07;;;;;;;0.73;0.20;;;19.00;55.50;;;;;;5086278;28;20040;-64
2022/06/21 06:04:53;;;;;;;2.60;0.38;;;19.00;56.00;;;;;;5077433;28;20040;-63
2022/06/21 06:07:42;;;;;;;2.97;0.40;;;19.00;56.20;;;;;;5069825;28;20048;-62
2022/06/21 06:10:10;;;;;;;2.25;0.35;;;19.00;56.30;;;;;;5080720;28;20773;-63
2022/06/21 06:12:44;;;;;;;2.05;0.20;;;19.00;56.10;;;;;;5082797;28;20578;-63
2022/06/21 06:15:20;;;;;;;4.30;0.38;;;19.00;56.40;;;;;;5079452;28;20035;-64
2022/06/21 06:18:02;;;;;;;1.48;0.35;;;19.00;56.50;;;;;;5082185;28;20040;-65
2022/06/21 06:26:01;;;;;;;2.10;0.40;;;19.00;56.70;;;;;;5117803;27;1165543;-65
2022/06/21 06:28:40;;;;;;;1.95;0.40;;;19.20;56.70;;;;;;5115460;27;20053;-67
2022/06/21 06:31:21;;;;;;;4.95;0.70;;;19.20;57.00;;;;;;5129929;27;20108;-65
2022/06/21 06:34:01;;;;;;;2.47;0.30;;;19.20;57.70;;;;;;5119142;27;20052;-66
2022/06/21 06:36:33;;;;;;;2.95;0.50;;;19.20;58.00;;;;;;5132878;27;20482;-68
2022/06/21 06:39:00;;;;;;;3.65;0.45;;;19.30;58.00;;;;;;5099640;27;20035;-65
2022/06/21 06:41:33;;;;;;;1.40;0.38;;;19.30;57.80;;;;;;5110896;27;20540;-65
2022/06/21 06:44:09;;;;;;;4.57;0.40;;;19.40;58.00;;;;;;5113084;27;20047;-66
2022/06/21 06:46:39;;;;;;;2.08;0.43;;;19.40;57.90;;;;;;5115102;27;20110;-65
2022/06/21 07:03:01;;;;;;;6.80;0.43;;;19.50;58.50;;;;;;5101434;27;20971;-69
2022/06/21 07:05:34;;;;;;;3.47;0.40;;;19.70;58.80;;;;;;5073944;28;20400;-68
2022/06/21 07:08:12;;;;;;;3.97;0.40;;;19.80;58.70;;;;;;5080781;28;20050;-68
2022/06/21 07:10:38;;;;;;;4.15;0.65;;;19.80;58.70;;;;;;5107099;27;20040;-66
2022/06/21 07:13:04;;;;;;;2.50;0.28;;;19.80;58.70;;;;;;5072248;28;20028;-66
2022/06/21 07:15:35;;;;;;;8.25;0.40;;;19.80;58.70;;;;;;5079202;28;20178;-66
2022/06/21 07:18:01;;;;;;;2.60;0.35;;;19.90;59.10;;;;;;5069995;28;20060;-66
2022/06/21 07:20:37;;;;;;;5.57;1.10;;;19.90;59.00;;;;;;5072803;28;20102;-66
2022/06/21 07:23:10;;;;;;;3.47;0.30;;;19.90;59.10;;;;;;5105915;27;20125;-66
2022/06/21 07:31:29;;;;;;;2.85;0.52;;;20.00;59.40;;;;;;5087527;27;20899;-71
2022/06/21 07:34:03;;;;;;;4.97;1.02;;;20.10;59.30;;;;;;5076766;28;20044;-67
2022/06/21 07:36:39;;;;;;;2.97;0.30;;;20.10;59.20;;;;;;5080062;28;20064;-66
2022/06/21 07:39:42;;;;;;;2.10;0.25;;;20.10;59.30;;;;;;5076711;28;20028;-66
2022/06/21 07:42:14;;;;;;;2.42;0.30;;;20.20;59.80;;;;;;5079741;28;20040;-66
2022/06/21 07:44:47;;;;;;;5.28;0.50;;;20.20;59.30;;;;;;5075939;28;20043;-66
2022/06/21 07:47:21;;;;;;;4.10;0.57;;;20.20;59.50;;;;;;5080938;28;20040;-67
2022/06/21 07:49:59;;;;;;;5.38;0.95;;;20.20;59.60;;;;;;5071522;28;20502;-69
2022/06/21 07:52:30;;;;;;;2.08;0.30;;;20.30;59.80;;;;;;5086888;28;20044;-67
2022/06/21 07:54:59;;;;;;;3.40;0.40;;;20.30;59.60;;;;;;5075014;28;20075;-66
2022/06/21 07:57:39;;;;;;;2.90;0.40;;;20.30;60.40;;;;;;5075856;28;20085;-66
2022/06/21 08:00:12;;;;;;;2.42;0.30;;;20.30;59.70;;;;;;5077268;28;20040;-72
2022/06/21 08:08:32;;;;;;;1.98;0.40;;;20.40;59.70;;;;;;5068831;28;20098;-66
2022/06/21 08:11:09;;;;;;;2.25;0.40;;;20.40;59.70;;;;;;5085817;28;20042;-66
2022/06/21 08:13:35;;;;;;;0.68;0.30;;;20.40;59.70;;;;;;5070290;28;20709;-67
2022/06/21 08:16:10;;;;;;;2.95;0.57;;;20.40;59.50;;;;;;5071134;28;20135;-66
2022/06/21 08:18:50;;;;;;;5.10;0.70;;;20.50;59.40;;;;;;5074388;28;20115;-66
2022/06/21 08:21:22;;;;;;;3.17;0.50;;;20.50;59.40;;;;;;5080426;28;20634;-64
2022/06/21 08:24:03;;;;;;;3.13;0.32;;;20.50;59.40;;;;;;5077048;28;20036;-67
2022/06/21 08:26:34;;;;;;;3.30;0.60;;;20.60;59.40;;;;;;5084375;28;20040;-66
2022/06/21 08:29:07;;;;;;;3.55;0.50;;;20.60;59.00;;;;;;5082005;28;20070;-66
2022/06/21 08:31:37;;;;;;;1.75;0.40;;;20.70;58.80;;;;;;5076910;28;20044;-66
2022/06/21 08:34:10;;;;;;;4.30;0.50;;;20.70;58.70;;;;;;5073128;28;20051;-64
2022/06/21 08:36:43;;;;;;;1.02;0.20;;;20.80;58.50;;;;;;5078721;28;20032;-64
2022/06/21 08:56:11;;;;;;;2.90;0.30;;;21.20;56.20;;;;;;5094900;27;20963;-67
2022/06/21 09:07:17;;;;;;;6.72;0.60;;;22.60;52.70;;;;;;5098444;27;20164;-68
2022/06/21 09:13:12;;;;;;;8.43;0.40;;;23.30;51.30;;;;;;5075390;27;20477;-69
2022/06/21 09:24:09;;;;;;;3.00;0.50;;;23.80;50.10;;;;;;5066243;27;20986;-69
2022/06/21 09:29:50;;;;;;;3.72;0.40;;;23.80;50.40;;;;;;5108861;27;20365;-67
2022/06/21 09:32:42;;;;;;;4.25;0.25;;;23.90;50.30;;;;;;5085026;28;20097;-66
2022/06/21 09:35:27;;;;;;;5.13;0.43;;;24.00;50.20;;;;;;5125863;27;20115;-67
2022/06/21 09:40:39;;;;;;;4.00;0.40;;;24.10;50.20;;;;;;5068309;27;20470;-69
2022/06/21 09:43:32;;;;;;;3.20;0.20;;;24.10;49.80;;;;;;5065346;28;20052;-69
2022/06/21 09:46:28;;;;;;;1.90;0.20;;;24.20;49.90;;;;;;5080883;28;20055;-70
2022/06/21 09:49:03;;;;;;;9.18;0.63;;;24.20;50.00;;;;;;5076058;28;20036;-68
2022/06/21 09:57:14;;;;;;;7.47;0.50;;;24.20;49.90;;;;;;5101724;27;20483;-69
2022/06/21 10:03:03;;;;;;;4.18;0.32;;;24.10;50.10;;;;;;5094227;27;20414;-71
2022/06/21 10:05:53;;;;;;;6.65;0.50;;;24.10;50.10;;;;;;5088855;28;20087;-68
2022/06/21 10:08:43;;;;;;;5.95;0.40;;;24.10;50.20;;;;;;5075232;28;20079;-72
2022/06/21 10:29:21;;;;;;;4.18;0.25;;;24.00;50.40;;;;;;5089539;27;20421;-70
2022/06/21 10:32:13;;;;;;;4.00;0.20;;;24.00;50.20;;;;;;5092663;28;20052;-70
2022/06/21 10:40:33;;;;;;;1.02;0.20;;;23.90;49.80;;;;;;5083171;27;20388;-69
2022/06/21 10:46:27;;;;;;;8.13;0.70;;;23.70;48.40;;;;;;5065262;27;20479;-68
2022/06/21 10:49:35;;;;;;;4.93;0.20;;;23.70;48.00;;;;;;5054475;28;20069;-69
2022/06/21 11:01:31;;;;;;;5.95;0.28;;;23.80;49.70;;;;;;5113811;27;20394;-68
2022/06/21 11:09:32;;;;;;;2.47;0.30;;;23.70;49.80;;;;;;5072859;28;20474;-68
2022/06/21 11:15:32;;;;;;;5.43;0.47;;;23.70;49.30;;;;;;5061427;28;20503;-79
2022/06/21 11:21:17;;;;;;;4.13;0.68;;;23.70;49.40;;;;;;5088118;27;20479;-73
2022/06/21 11:23:58;;;;;;;3.55;0.20;;;23.60;49.30;;;;;;5076452;28;20040;-73
2022/06/21 11:32:21;;;;;;;3.65;0.20;;;23.60;49.40;;;;;;5095990;27;21619;-73
2022/06/21 11:38:00;;;;;;;4.10;0.75;;;23.60;49.70;;;;;;5101033;27;20534;-67
2022/06/21 11:40:51;;;;;;;3.20;0.27;;;23.60;49.80;;;;;;5075065;28;20567;-66
2022/06/21 11:43:56;;;;;;;2.30;0.30;;;23.60;49.60;;;;;;5090817;28;20294;-67
2022/06/21 11:49:32;;;;;;;2.20;0.30;;;23.70;49.50;;;;;;5090612;27;20389;-69
2022/06/21 11:58:19;;;;;;;2.58;0.50;;;23.70;49.60;;;;;;5116332;27;1171632;-66
2022/06/21 12:03:58;;;;;;;3.20;0.20;;;23.90;48.70;;;;;;5125766;27;1158262;-71
2022/06/21 12:06:55;;;;;;;5.68;0.40;;;23.90;48.70;;;;;;5131665;27;20391;-69
2022/06/21 12:09:31;;;;;;;1.25;0.10;;;23.90;48.70;;;;;;5130040;27;20120;-70
2022/06/21 12:18:20;;;;;;;2.67;0.20;;;24.00;48.20;;;;;;5063291;27;20420;-70
2022/06/21 12:21:09;;;;;;;2.33;0.25;;;24.00;48.40;;;;;;5052690;28;20041;-71
2022/06/21 12:23:44;;;;;;;2.13;0.35;;;23.90;48.60;;;;;;5065568;28;20041;-69
2022/06/21 12:26:15;;;;;;;3.95;0.22;;;24.00;48.80;;;;;;5051689;28;20035;-69
2022/06/21 12:28:42;;;;;;;3.20;0.25;;;24.10;49.10;;;;;;5054493;28;20679;-71
2022/06/21 12:31:23;;;;;;;4.82;0.20;;;24.00;49.10;;;;;;5045575;28;20772;-71
2022/06/21 12:33:54;;;;;;;2.38;0.20;;;24.10;49.20;;;;;;5042761;28;20492;-71
2022/06/21 12:39:51;;;;;;;2.75;0.20;;;24.10;49.30;;;;;;5058577;28;20997;-71
2022/06/21 12:42:49;;;;;;;2.70;0.20;;;24.20;49.50;;;;;;5047971;28;20060;-70
2022/06/21 12:45:49;;;;;;;4.97;0.40;;;24.20;49.60;;;;;;5045252;28;20152;-71
2022/06/21 13:10:51;;;;;;;3.72;0.43;;;24.20;49.90;;;;;;5127634;27;20357;-69
2022/06/21 13:27:27;;;;;;;2.75;0.20;;;24.10;48.80;;;;;;5102909;27;20312;-68
2022/06/21 13:32:55;;;;;;;3.10;0.20;;;24.10;48.90;;;;;;5127228;27;20427;-66
2022/06/21 13:35:30;;;;;;;1.23;0.20;;;24.10;48.90;;;;;;5121246;28;20525;-67
2022/06/21 13:40:48;;;;;;;1.30;0.20;;;24.10;48.70;;;;;;5111626;27;20410;-66
2022/06/21 13:43:29;;;;;;;1.98;0.10;;;24.20;48.00;;;;;;5120203;28;20043;-66
2022/06/21 13:46:10;;;;;;;1.52;0.10;;;24.20;47.50;;;;;;5121802;28;20068;-67
2022/06/21 13:48:46;;;;;;;;;;;24.30;47.10;;;;;;5124083;28;20039;-67
2022/06/21 13:54:04;;;;;;;1.15;0.10;;;24.30;47.30;;;;;;5126594;27;20395;-67
2022/06/21 13:56:41;;;;;;;1.88;0.20;;;24.30;46.70;;;;;;5122433;28;20043;-68
2022/06/21 13:59:15;;;;;;;7.10;1.60;;;24.30;46.40;;;;;;5144591;27;20186;-68
2022/06/21 14:02:06;;;;;;;16.83;6.82;;;24.30;46.50;;;;;;5150851;27;20047;-69
2022/06/21 14:12:56;;;;;;;11.90;4.93;;;24.40;46.50;;;;;;5138420;27;1162681;-68
2022/06/21 14:15:34;;;;;;;8.80;3.22;;;24.40;45.90;;;;;;5136374;27;20096;-67
2022/06/21 14:20:57;;;;;;;7.82;2.50;;;24.40;45.70;;;;;;5122825;27;20115;-66
2022/06/21 14:23:49;;;;;;;9.23;1.85;;;24.40;45.60;;;;;;5104242;28;20465;-66
2022/06/21 14:32:28;;;;;;;2.13;0.60;;;24.40;45.50;;;;;;5126523;27;20432;-66
2022/06/21 14:35:17;;;;;;;2.63;0.60;;;24.40;45.30;;;;;;5126451;27;20051;-66
2022/06/21 14:38:06;;;;;;;3.05;0.47;;;24.30;45.00;;;;;;5142124;27;20647;-66
2022/06/21 14:46:30;;;;;;;2.67;0.47;;;24.30;44.70;;;;;;5126932;27;1166661;-67
2022/06/21 14:49:09;;;;;;;3.08;0.40;;;24.30;44.70;;;;;;5124556;27;20058;-68
2022/06/21 14:52:14;;;;;;;2.25;0.20;;;24.40;45.00;;;;;;5129587;27;20115;-69
2022/06/21 14:58:00;;;;;;;2.20;0.20;;;24.40;44.80;;;;;;5107854;27;20359;-67
2022/06/21 15:03:37;;;;;;;2.90;0.20;;;24.30;45.00;;;;;;5085999;27;20912;-67
2022/06/21 15:12:00;;;;;;;1.55;0.10;;;24.20;45.00;;;;;;5087859;27;20417;-68
2022/06/21 15:14:39;;;;;;;0.90;0.10;;;24.20;45.20;;;;;;5086640;28;20055;-67
2022/06/21 15:30:51;;;;;;;1.23;0.20;;;23.90;45.90;;;;;;5086558;27;20356;-67
2022/06/21 15:33:29;;;;;;;2.03;0.20;;;23.90;46.20;;;;;;5087133;28;20641;-67
2022/06/21 15:36:24;;;;;;;0.45;0.10;;;23.80;46.20;;;;;;5086910;28;20052;-67
2022/06/21 15:38:59;;;;;;;2.15;0.25;;;23.80;46.40;;;;;;5085864;28;20048;-67
2022/06/21 15:41:34;;;;;;;1.48;0.10;;;23.80;46.50;;;;;;5086148;28;20043;-67
2022/06/21 15:44:21;;;;;;;0.95;0.15;;;23.70;47.10;;;;;;5086035;28;20036;-67
2022/06/21 15:50:12;;;;;;;0.55;0.10;;;23.70;46.50;;;;;;5085947;28;20035;-67
2022/06/21 15:52:30;;;;;;;1.40;0.15;;;23.60;46.70;;;;;;5083613;28;20052;-67
2022/06/21 15:55:04;;;;;;;1.25;0.13;;;23.60;46.80;;;;;;5065668;28;20052;-67
2022/06/21 15:57:58;;;;;;;1.02;0.10;;;23.60;46.90;;;;;;5081131;28;20052;-67
2022/06/21 16:00:35;;;;;;;0.85;0.30;;;23.60;47.00;;;;;;5066171;28;20514;-67
2022/06/21 16:03:28;;;;;;;2.72;0.20;;;23.60;47.20;;;;;;5065607;28;20499;-68
2022/06/21 16:06:17;;;;;;;0.70;0.13;;;23.60;47.30;;;;;;5066172;28;20044;-68
2022/06/21 16:08:58;;;;;;;1.58;0.20;;;23.60;47.30;;;;;;5066145;28;20044;-67
2022/06/21 16:11:30;;;;;;;1.13;0.20;;;23.60;47.30;;;;;;5067342;28;20416;-67
2022/06/21 16:14:00;;;;;;;1.13;0.20;;;23.60;47.50;;;;;;5067680;28;20047;-67
2022/06/21 16:16:40;;;;;;;1.73;0.20;;;23.50;47.40;;;;;;5066339;28;20106;-67
2022/06/21 16:19:14;;;;;;;2.55;0.10;;;23.50;47.50;;;;;;5065299;28;20186;-68
2022/06/21 16:21:45;;;;;;;0.70;0.20;;;23.50;47.50;;;;;;5064728;28;20523;-68
2022/06/21 16:26:58;;;;;;;2.45;0.20;;;23.50;47.60;;;;;;5129078;27;20430;-67
2022/06/21 16:33:13;;;;;;;0.20;0.10;;;23.40;48.00;;;;;;5151631;27;1162357;-67
2022/06/21 16:35:36;;;;;;;0.47;0.10;;;23.40;48.00;;;;;;5151585;27;20038;-67
2022/06/21 16:38:16;;;;;;;0.82;0.10;;;23.40;48.00;;;;;;5151617;27;20498;-67
2022/06/21 16:47:20;;;;;;;0.93;0.20;;;23.40;48.00;;;;;;5129221;27;20403;-67
2022/06/21 16:49:53;;;;;;;2.00;0.10;;;23.40;47.90;;;;;;5127680;28;20561;-67
2022/06/21 16:55:11;;;;;;;1.10;0.10;;;23.40;47.90;;;;;;5108669;27;20052;-67
2022/06/21 16:57:38;;;;;;;1.50;0.30;;;23.40;48.00;;;;;;5106896;28;20518;-67
2022/06/21 17:00:17;;;;;;;1.70;0.15;;;23.30;48.00;;;;;;5106419;28;20100;-67
2022/06/21 17:02:49;;;;;;;1.90;0.20;;;23.30;48.20;;;;;;5106572;28;20044;-67
2022/06/21 17:05:19;;;;;;;0.30;0.10;;;23.30;48.40;;;;;;5106869;28;20321;-67
2022/06/21 17:07:50;;;;;;;0.88;0.20;;;23.30;48.50;;;;;;5107160;28;20051;-67
2022/06/21 17:11:25;;;;;;;1.38;0.20;;;23.30;48.70;;;;;;5107282;28;20043;-67
2022/06/21 17:13:17;;;;;;;0.52;0.10;;;23.30;48.80;;;;;;5108154;28;20082;-67
2022/06/21 17:15:44;;;;;;;0.60;0.10;;;23.30;48.90;;;;;;5108304;28;20063;-67
2022/06/21 17:18:23;;;;;;;0.70;0.10;;;23.30;49.00;;;;;;5107628;28;20040;-67
2022/06/21 17:21:00;;;;;;;1.10;0.20;;;23.30;49.10;;;;;;5107336;28;20040;-67
2022/06/21 17:31:55;;;;;;;0.40;0.10;;;23.20;49.30;;;;;;5129375;27;20399;-67
2022/06/21 17:34:41;;;;;;;0.50;0.20;;;23.40;49.40;;;;;;5144721;27;20293;-67
2022/06/21 17:37:26;;;;;;;0.70;0.20;;;23.30;49.30;;;;;;5128780;27;20143;-67
2022/06/21 17:40:05;;;;;;;0.88;0.10;;;23.30;49.40;;;;;;5128028;27;20079;-67
2022/06/21 17:45:19;;;;;;;0.55;0.20;;;23.30;49.50;;;;;;5087498;27;20421;-67
2022/06/21 17:47:51;;;;;;;0.57;0.10;;;23.20;49.60;;;;;;5086881;28;20561;-67
2022/06/21 17:50:38;;;;;;;0.43;0.10;;;23.30;49.60;;;;;;5087496;28;20213;-69
2022/06/21 17:53:11;;;;;;;0.80;0.20;;;23.30;49.50;;;;;;5088387;28;20120;-67
2022/06/21 17:55:43;;;;;;;0.82;0.10;;;23.20;49.50;;;;;;5087002;28;20098;-67
2022/06/21 17:58:17;;;;;;;0.55;0.10;;;23.30;49.50;;;;;;5086514;28;20391;-67
2022/06/21 18:01:07;;;;;;;1.02;0.20;;;23.30;49.50;;;;;;5085963;28;20079;-67
2022/06/21 18:03:58;;;;;;;0.73;0.20;;;23.20;49.50;;;;;;5086987;28;20055;-67
2022/06/21 18:06:31;;;;;;;0.40;0.10;;;23.30;49.60;;;;;;5086407;28;20529;-67
2022/06/21 18:09:25;;;;;;;0.60;0.10;;;23.30;49.60;;;;;;5086786;28;20492;-67
2022/06/21 18:12:07;;;;;;;0.52;0.17;;;23.30;49.70;;;;;;5086680;28;20048;-67
2022/06/21 18:14:35;;;;;;;0.55;0.10;;;23.20;49.70;;;;;;5086325;28;20557;-67
2022/06/21 18:17:41;;;;;;;0.52;0.10;;;23.30;49.80;;;;;;5087443;28;20036;-67
2022/06/21 18:34:10;;;;;;;1.55;0.30;;;23.30;50.20;;;;;;5128925;27;20354;-67
2022/06/21 18:42:26;;;;;;;2.03;0.20;;;23.20;50.30;;;;;;5150890;27;1156460;-66
2022/06/21 18:45:32;;;;;;;2.42;0.30;;;23.20;50.60;;;;;;5151050;27;20050;-67
2022/06/21 18:48:15;;;;;;;0.77;0.20;;;23.20;50.60;;;;;;5152376;27;20039;-67
2022/06/21 18:50:49;;;;;;;1.00;0.28;;;23.20;50.70;;;;;;5170924;27;20071;-67
2022/06/21 19:12:51;;;;;;;1.00;0.22;;;23.00;51.20;;;;;;5129218;27;20353;-68
2022/06/21 19:18:23;;;;;;;1.00;0.20;;;23.00;51.20;;;;;;5128489;27;20853;-67
2022/06/21 19:24:03;;;;;;;0.88;0.20;;;22.90;51.40;;;;;;5128591;27;20777;-67
2022/06/21 19:35:43;;;;;;;0.85;0.25;;;22.80;51.80;;;;;;5129069;27;20430;-67
2022/06/21 19:41:19;;;;;;;0.60;0.20;;;22.80;51.90;;;;;;5086963;27;20390;-67
2022/06/21 19:46:53;;;;;;;0.90;0.20;;;22.70;52.20;;;;;;5087670;27;20413;-67
2022/06/21 20:08:34;;;;;;;1.02;0.30;;;22.50;53.00;;;;;;5129136;27;20424;-67
2022/06/21 20:11:06;;;;;;;1.00;0.38;;;22.50;53.10;;;;;;5127944;28;20292;-66
2022/06/21 20:13:41;;;;;;;1.08;0.30;;;22.40;53.10;;;;;;5127444;27;20556;-67
2022/06/21 20:16:27;;;;;;;1.45;0.30;;;22.40;53.20;;;;;;5128922;27;20070;-67
2022/06/21 20:27:45;;;;;;;2.28;0.38;;;22.40;53.40;;;;;;5149341;27;20163;-67
2022/06/21 20:30:21;;;;;;;1.02;0.30;;;22.30;53.60;;;;;;5127605;28;20051;-67
2022/06/21 20:32:59;;;;;;;0.70;0.43;;;22.30;53.70;;;;;;5127979;28;20126;-68